sensor_id;sensor_type;location;lat;lon;timestamp;P1;durP1;ratioP1;P2;durP2;ratioP2
20012;SDS011;10167;42.852;23.042;2024-01-07T00:00:17;11.07;;;2.92;;
20012;SDS011;10167;42.852;23.042;2024-01-07T00:02:47;4.65;;;2.05;;
20012;SDS011;10167;42.852;23.042;2024-01-07T00:05:18;8.38;;;4.40;;
20012;SDS011;10167;42.852;23.042;2024-01-07T00:07:47;4.13;;;1.98;;
20012;SDS011;10167;42.852;23.042;2024-01-07T00:10:18;3.80;;;2.25;;
20012;SDS011;10167;42.852;23.042;2024-01-07T00:12:47;3.83;;;2.17;;
20012;SDS011;10167;42.852;23.042;2024-01-07T00:15:17;2.05;;;1.60;;
20012;SDS011;10167;42.852;23.042;2024-01-07T00:17:50;3.03;;;2.78;;
20012;SDS011;10167;42.852;23.042;2024-01-07T00:20:20;2.10;;;1.80;;
20012;SDS011;10167;42.852;23.042;2024-01-07T00:22:49;3.03;;;2.72;;
20012;SDS011;10167;42.852;23.042;2024-01-07T00:25:18;5.63;;;2.88;;
20012;SDS011;10167;42.852;23.042;2024-01-07T00:27:49;2.60;;;2.40;;
20012;SDS011;10167;42.852;23.042;2024-01-07T00:30:19;1.52;;;1.42;;
20012;SDS011;10167;42.852;23.042;2024-01-07T00:32:48;6.97;;;2.00;;
20012;SDS011;10167;42.852;23.042;2024-01-07T00:35:18;3.95;;;2.15;;
20012;SDS011;10167;42.852;23.042;2024-01-07T00:37:50;2.70;;;1.25;;
20012;SDS011;10167;42.852;23.042;2024-01-07T00:40:19;4.25;;;2.63;;
20012;SDS011;10167;42.852;23.042;2024-01-07T00:42:48;2.80;;;2.03;;
20012;SDS011;10167;42.852;23.042;2024-01-07T00:45:18;3.45;;;1.35;;
20012;SDS011;10167;42.852;23.042;2024-01-07T00:47:49;2.53;;;1.95;;
20012;SDS011;10167;42.852;23.042;2024-01-07T00:50:18;2.55;;;2.33;;
20012;SDS011;10167;42.852;23.042;2024-01-07T00:52:49;3.15;;;1.50;;
20012;SDS011;10167;42.852;23.042;2024-01-07T00:55:18;1.98;;;1.88;;
20012;SDS011;10167;42.852;23.042;2024-01-07T00:57:49;1.35;;;1.25;;
20012;SDS011;10167;42.852;23.042;2024-01-07T01:00:19;8.05;;;2.00;;
20012;SDS011;10167;42.852;23.042;2024-01-07T01:02:49;3.67;;;1.88;;
20012;SDS011;10167;42.852;23.042;2024-01-07T01:05:18;7.70;;;3.45;;
20012;SDS011;10167;42.852;23.042;2024-01-07T01:07:49;2.47;;;1.88;;
20012;SDS011;10167;42.852;23.042;2024-01-07T01:10:19;1.20;;;1.17;;
20012;SDS011;10167;42.852;23.042;2024-01-07T01:12:48;1.60;;;1.50;;
20012;SDS011;10167;42.852;23.042;2024-01-07T01:15:19;2.50;;;2.15;;
20012;SDS011;10167;42.852;23.042;2024-01-07T01:17:49;1.92;;;1.70;;
20012;SDS011;10167;42.852;23.042;2024-01-07T01:20:18;2.65;;;2.17;;
20012;SDS011;10167;42.852;23.042;2024-01-07T01:22:49;4.10;;;2.28;;
20012;SDS011;10167;42.852;23.042;2024-01-07T01:25:18;1.52;;;1.15;;
20012;SDS011;10167;42.852;23.042;2024-01-07T01:27:48;2.20;;;2.00;;
20012;SDS011;10167;42.852;23.042;2024-01-07T01:30:17;3.28;;;2.15;;
20012;SDS011;10167;42.852;23.042;2024-01-07T01:32:46;1.73;;;0.98;;
20012;SDS011;10167;42.852;23.042;2024-01-07T01:35:15;1.65;;;1.40;;
20012;SDS011;10167;42.852;23.042;2024-01-07T01:37:44;3.10;;;1.95;;
20012;SDS011;10167;42.852;23.042;2024-01-07T01:40:15;0.50;;;0.50;;
20012;SDS011;10167;42.852;23.042;2024-01-07T01:42:45;3.72;;;2.25;;
20012;SDS011;10167;42.852;23.042;2024-01-07T01:45:15;5.60;;;3.78;;
20012;SDS011;10167;42.852;23.042;2024-01-07T01:47:44;1.25;;;1.15;;
20012;SDS011;10167;42.852;23.042;2024-01-07T01:50:15;4.55;;;1.83;;
20012;SDS011;10167;42.852;23.042;2024-01-07T01:52:46;5.07;;;2.17;;
20012;SDS011;10167;42.852;23.042;2024-01-07T01:55:17;2.58;;;1.63;;
20012;SDS011;10167;42.852;23.042;2024-01-07T01:57:46;3.28;;;2.35;;
20012;SDS011;10167;42.852;23.042;2024-01-07T02:00:17;1.88;;;1.77;;
20012;SDS011;10167;42.852;23.042;2024-01-07T02:02:47;1.55;;;1.45;;
20012;SDS011;10167;42.852;23.042;2024-01-07T02:05:16;3.33;;;2.42;;
20012;SDS011;10167;42.852;23.042;2024-01-07T02:07:45;2.63;;;2.42;;
20012;SDS011;10167;42.852;23.042;2024-01-07T02:10:15;1.92;;;1.70;;
20012;SDS011;10167;42.852;23.042;2024-01-07T02:12:46;1.77;;;1.67;;
20012;SDS011;10167;42.852;23.042;2024-01-07T02:15:15;3.70;;;2.03;;
20012;SDS011;10167;42.852;23.042;2024-01-07T02:17:44;1.48;;;1.20;;
20012;SDS011;10167;42.852;23.042;2024-01-07T02:20:14;3.53;;;1.25;;
20012;SDS011;10167;42.852;23.042;2024-01-07T02:22:43;0.68;;;0.68;;
20012;SDS011;10167;42.852;23.042;2024-01-07T02:25:14;2.80;;;2.17;;
20012;SDS011;10167;42.852;23.042;2024-01-07T02:27:44;1.98;;;1.80;;
20012;SDS011;10167;42.852;23.042;2024-01-07T02:30:14;2.65;;;2.45;;
20012;SDS011;10167;42.852;23.042;2024-01-07T02:32:43;2.03;;;1.60;;
20012;SDS011;10167;42.852;23.042;2024-01-07T02:35:12;4.43;;;2.08;;
20012;SDS011;10167;42.852;23.042;2024-01-07T02:37:41;1.00;;;1.00;;
20012;SDS011;10167;42.852;23.042;2024-01-07T02:40:11;1.80;;;1.70;;
20012;SDS011;10167;42.852;23.042;2024-01-07T02:42:42;1.48;;;1.30;;
20012;SDS011;10167;42.852;23.042;2024-01-07T02:45:11;0.80;;;0.80;;
20012;SDS011;10167;42.852;23.042;2024-01-07T02:47:40;4.68;;;1.75;;
20012;SDS011;10167;42.852;23.042;2024-01-07T02:50:09;1.73;;;1.48;;
20012;SDS011;10167;42.852;23.042;2024-01-07T02:52:39;1.85;;;1.40;;
20012;SDS011;10167;42.852;23.042;2024-01-07T02:55:08;1.58;;;1.00;;
20012;SDS011;10167;42.852;23.042;2024-01-07T02:57:37;4.43;;;1.77;;
20012;SDS011;10167;42.852;23.042;2024-01-07T03:00:08;0.98;;;0.98;;
20012;SDS011;10167;42.852;23.042;2024-01-07T03:02:38;1.70;;;1.60;;
20012;SDS011;10167;42.852;23.042;2024-01-07T03:05:08;4.10;;;3.30;;
20012;SDS011;10167;42.852;23.042;2024-01-07T03:07:37;1.23;;;1.17;;
20012;SDS011;10167;42.852;23.042;2024-01-07T03:10:07;3.65;;;2.83;;
20012;SDS011;10167;42.852;23.042;2024-01-07T03:12:37;1.52;;;1.42;;
20012;SDS011;10167;42.852;23.042;2024-01-07T03:15:06;1.42;;;1.33;;
20012;SDS011;10167;42.852;23.042;2024-01-07T03:17:37;1.23;;;1.00;;
20012;SDS011;10167;42.852;23.042;2024-01-07T03:20:07;1.60;;;1.42;;
20012;SDS011;10167;42.852;23.042;2024-01-07T03:22:37;0.77;;;0.77;;
20012;SDS011;10167;42.852;23.042;2024-01-07T03:25:07;0.90;;;0.90;;
20012;SDS011;10167;42.852;23.042;2024-01-07T03:27:36;1.83;;;1.67;;
20012;SDS011;10167;42.852;23.042;2024-01-07T03:30:06;3.13;;;1.17;;
20012;SDS011;10167;42.852;23.042;2024-01-07T03:32:38;13.88;;;2.47;;
20012;SDS011;10167;42.852;23.042;2024-01-07T03:35:07;6.10;;;0.90;;
20012;SDS011;10167;42.852;23.042;2024-01-07T03:37:37;1.33;;;1.15;;
20012;SDS011;10167;42.852;23.042;2024-01-07T03:40:09;2.30;;;1.25;;
20012;SDS011;10167;42.852;23.042;2024-01-07T03:42:40;1.17;;;1.05;;
20012;SDS011;10167;42.852;23.042;2024-01-07T03:45:09;5.38;;;1.80;;
20012;SDS011;10167;42.852;23.042;2024-01-07T03:47:40;1.60;;;1.10;;
20012;SDS011;10167;42.852;23.042;2024-01-07T03:50:09;1.02;;;0.98;;
20012;SDS011;10167;42.852;23.042;2024-01-07T03:52:38;0.65;;;0.65;;
20012;SDS011;10167;42.852;23.042;2024-01-07T03:55:08;2.30;;;2.10;;
20012;SDS011;10167;42.852;23.042;2024-01-07T03:57:37;4.05;;;1.23;;
20012;SDS011;10167;42.852;23.042;2024-01-07T04:00:07;0.68;;;0.68;;
20012;SDS011;10167;42.852;23.042;2024-01-07T04:02:37;2.05;;;0.85;;
20012;SDS011;10167;42.852;23.042;2024-01-07T04:05:08;2.03;;;0.98;;
20012;SDS011;10167;42.852;23.042;2024-01-07T04:07:37;5.10;;;2.40;;
20012;SDS011;10167;42.852;23.042;2024-01-07T04:10:07;3.75;;;1.90;;
20012;SDS011;10167;42.852;23.042;2024-01-07T04:12:36;2.35;;;2.00;;
20012;SDS011;10167;42.852;23.042;2024-01-07T04:15:06;3.50;;;2.17;;
20012;SDS011;10167;42.852;23.042;2024-01-07T04:17:38;2.30;;;2.05;;
20012;SDS011;10167;42.852;23.042;2024-01-07T04:20:11;1.08;;;1.08;;
20012;SDS011;10167;42.852;23.042;2024-01-07T04:22:41;2.65;;;1.30;;
20012;SDS011;10167;42.852;23.042;2024-01-07T04:25:11;1.02;;;0.90;;
20012;SDS011;10167;42.852;23.042;2024-01-07T04:27:40;1.02;;;0.93;;
20012;SDS011;10167;42.852;23.042;2024-01-07T04:30:09;2.38;;;1.33;;
20012;SDS011;10167;42.852;23.042;2024-01-07T04:32:39;8.68;;;2.20;;
20012;SDS011;10167;42.852;23.042;2024-01-07T04:35:09;4.75;;;3.45;;
20012;SDS011;10167;42.852;23.042;2024-01-07T04:37:39;5.18;;;2.75;;
20012;SDS011;10167;42.852;23.042;2024-01-07T04:40:08;1.52;;;1.45;;
20012;SDS011;10167;42.852;23.042;2024-01-07T04:42:38;3.90;;;2.15;;
20012;SDS011;10167;42.852;23.042;2024-01-07T04:45:08;1.95;;;1.15;;
20012;SDS011;10167;42.852;23.042;2024-01-07T04:47:37;1.75;;;1.65;;
20012;SDS011;10167;42.852;23.042;2024-01-07T04:50:06;1.88;;;1.77;;
20012;SDS011;10167;42.852;23.042;2024-01-07T04:52:37;2.35;;;2.15;;
20012;SDS011;10167;42.852;23.042;2024-01-07T04:55:06;5.93;;;2.28;;
20012;SDS011;10167;42.852;23.042;2024-01-07T04:57:36;1.77;;;1.63;;
20012;SDS011;10167;42.852;23.042;2024-01-07T05:00:06;6.13;;;1.27;;
20012;SDS011;10167;42.852;23.042;2024-01-07T05:02:34;1.48;;;1.35;;
20012;SDS011;10167;42.852;23.042;2024-01-07T05:05:04;2.03;;;1.90;;
20012;SDS011;10167;42.852;23.042;2024-01-07T05:07:36;2.20;;;2.10;;
20012;SDS011;10167;42.852;23.042;2024-01-07T05:10:07;2.55;;;1.52;;
20012;SDS011;10167;42.852;23.042;2024-01-07T05:12:37;3.90;;;2.17;;
20012;SDS011;10167;42.852;23.042;2024-01-07T05:15:06;2.38;;;2.03;;
20012;SDS011;10167;42.852;23.042;2024-01-07T05:17:36;2.33;;;2.05;;
20012;SDS011;10167;42.852;23.042;2024-01-07T05:20:06;3.00;;;2.55;;
20012;SDS011;10167;42.852;23.042;2024-01-07T05:22:36;9.35;;;3.90;;
20012;SDS011;10167;42.852;23.042;2024-01-07T05:25:07;8.90;;;3.40;;
20012;SDS011;10167;42.852;23.042;2024-01-07T05:27:36;6.05;;;2.83;;
20012;SDS011;10167;42.852;23.042;2024-01-07T05:30:06;4.57;;;2.53;;
20012;SDS011;10167;42.852;23.042;2024-01-07T05:32:36;1.75;;;1.65;;
20012;SDS011;10167;42.852;23.042;2024-01-07T05:35:05;4.57;;;2.60;;
20012;SDS011;10167;42.852;23.042;2024-01-07T05:37:35;2.20;;;2.10;;
20012;SDS011;10167;42.852;23.042;2024-01-07T05:40:05;2.22;;;1.05;;
20012;SDS011;10167;42.852;23.042;2024-01-07T05:42:37;2.55;;;2.03;;
20012;SDS011;10167;42.852;23.042;2024-01-07T05:45:06;2.65;;;2.00;;
20012;SDS011;10167;42.852;23.042;2024-01-07T05:47:36;3.13;;;1.77;;
20012;SDS011;10167;42.852;23.042;2024-01-07T05:50:05;0.77;;;0.77;;
20012;SDS011;10167;42.852;23.042;2024-01-07T05:52:35;3.95;;;2.63;;
20012;SDS011;10167;42.852;23.042;2024-01-07T05:55:04;8.20;;;3.95;;
20012;SDS011;10167;42.852;23.042;2024-01-07T05:57:36;8.57;;;5.25;;
20012;SDS011;10167;42.852;23.042;2024-01-07T06:00:05;2.42;;;2.22;;
20012;SDS011;10167;42.852;23.042;2024-01-07T06:02:38;2.63;;;1.90;;
20012;SDS011;10167;42.852;23.042;2024-01-07T06:05:08;2.90;;;2.60;;
20012;SDS011;10167;42.852;23.042;2024-01-07T06:07:37;3.40;;;3.10;;
20012;SDS011;10167;42.852;23.042;2024-01-07T06:10:08;7.15;;;2.83;;
20012;SDS011;10167;42.852;23.042;2024-01-07T06:12:37;8.15;;;3.05;;
20012;SDS011;10167;42.852;23.042;2024-01-07T06:15:07;2.85;;;2.20;;
20012;SDS011;10167;42.852;23.042;2024-01-07T06:17:37;5.10;;;3.42;;
20012;SDS011;10167;42.852;23.042;2024-01-07T06:20:06;12.00;;;8.38;;
20012;SDS011;10167;42.852;23.042;2024-01-07T06:22:36;12.25;;;7.95;;
20012;SDS011;10167;42.852;23.042;2024-01-07T06:25:08;8.05;;;5.22;;
20012;SDS011;10167;42.852;23.042;2024-01-07T06:27:38;4.55;;;3.60;;
20012;SDS011;10167;42.852;23.042;2024-01-07T06:30:08;3.67;;;3.38;;
20012;SDS011;10167;42.852;23.042;2024-01-07T06:32:38;11.52;;;4.10;;
20012;SDS011;10167;42.852;23.042;2024-01-07T06:35:07;3.97;;;2.38;;
20012;SDS011;10167;42.852;23.042;2024-01-07T06:37:37;3.60;;;2.63;;
20012;SDS011;10167;42.852;23.042;2024-01-07T06:40:08;2.70;;;2.30;;
20012;SDS011;10167;42.852;23.042;2024-01-07T06:42:39;4.05;;;3.30;;
20012;SDS011;10167;42.852;23.042;2024-01-07T06:45:11;6.20;;;4.32;;
20012;SDS011;10167;42.852;23.042;2024-01-07T06:47:40;7.00;;;3.58;;
20012;SDS011;10167;42.852;23.042;2024-01-07T06:50:09;1.48;;;1.38;;
20012;SDS011;10167;42.852;23.042;2024-01-07T06:52:39;3.53;;;3.22;;
20012;SDS011;10167;42.852;23.042;2024-01-07T06:55:10;3.75;;;3.05;;
20012;SDS011;10167;42.852;23.042;2024-01-07T06:57:39;2.45;;;2.33;;
20012;SDS011;10167;42.852;23.042;2024-01-07T07:00:08;3.95;;;1.95;;
20012;SDS011;10167;42.852;23.042;2024-01-07T07:02:38;4.22;;;2.40;;
20012;SDS011;10167;42.852;23.042;2024-01-07T07:05:07;6.47;;;3.53;;
20012;SDS011;10167;42.852;23.042;2024-01-07T07:07:37;4.45;;;4.13;;
20012;SDS011;10167;42.852;23.042;2024-01-07T07:10:06;11.25;;;4.63;;
20012;SDS011;10167;42.852;23.042;2024-01-07T07:12:40;8.85;;;3.95;;
20012;SDS011;10167;42.852;23.042;2024-01-07T07:15:09;6.97;;;4.45;;
20012;SDS011;10167;42.852;23.042;2024-01-07T07:17:39;8.57;;;5.75;;
20012;SDS011;10167;42.852;23.042;2024-01-07T07:20:08;5.40;;;4.45;;
20012;SDS011;10167;42.852;23.042;2024-01-07T07:22:38;8.02;;;3.65;;
20012;SDS011;10167;42.852;23.042;2024-01-07T07:25:08;7.07;;;3.65;;
20012;SDS011;10167;42.852;23.042;2024-01-07T07:27:37;3.35;;;3.05;;
20012;SDS011;10167;42.852;23.042;2024-01-07T07:30:09;3.53;;;3.25;;
20012;SDS011;10167;42.852;23.042;2024-01-07T07:32:39;9.02;;;5.30;;
20012;SDS011;10167;42.852;23.042;2024-01-07T07:35:09;7.78;;;4.10;;
20012;SDS011;10167;42.852;23.042;2024-01-07T07:37:39;8.38;;;5.60;;
20012;SDS011;10167;42.852;23.042;2024-01-07T07:40:08;7.28;;;5.57;;
20012;SDS011;10167;42.852;23.042;2024-01-07T07:42:42;3.00;;;2.25;;
20012;SDS011;10167;42.852;23.042;2024-01-07T07:45:13;3.53;;;3.00;;
20012;SDS011;10167;42.852;23.042;2024-01-07T07:47:44;10.00;;;3.50;;
20012;SDS011;10167;42.852;23.042;2024-01-07T07:50:13;3.03;;;1.73;;
20012;SDS011;10167;42.852;23.042;2024-01-07T07:52:43;1.63;;;1.52;;
20012;SDS011;10167;42.852;23.042;2024-01-07T07:55:12;5.55;;;3.30;;
20012;SDS011;10167;42.852;23.042;2024-01-07T07:57:43;8.88;;;4.18;;
20012;SDS011;10167;42.852;23.042;2024-01-07T08:00:14;5.03;;;4.32;;
20012;SDS011;10167;42.852;23.042;2024-01-07T08:02:43;10.65;;;6.35;;
20012;SDS011;10167;42.852;23.042;2024-01-07T08:05:13;5.13;;;3.63;;
20012;SDS011;10167;42.852;23.042;2024-01-07T08:07:42;8.07;;;7.00;;
20012;SDS011;10167;42.852;23.042;2024-01-07T08:10:12;8.85;;;5.90;;
20012;SDS011;10167;42.852;23.042;2024-01-07T08:12:41;4.88;;;4.35;;
20012;SDS011;10167;42.852;23.042;2024-01-07T08:15:12;5.88;;;4.32;;
20012;SDS011;10167;42.852;23.042;2024-01-07T08:17:42;15.98;;;7.05;;
20012;SDS011;10167;42.852;23.042;2024-01-07T08:20:12;15.80;;;8.25;;
20012;SDS011;10167;42.852;23.042;2024-01-07T08:22:42;7.82;;;4.63;;
20012;SDS011;10167;42.852;23.042;2024-01-07T08:25:12;13.95;;;3.97;;
20012;SDS011;10167;42.852;23.042;2024-01-07T08:27:41;5.10;;;3.78;;
20012;SDS011;10167;42.852;23.042;2024-01-07T08:30:13;8.30;;;3.58;;
20012;SDS011;10167;42.852;23.042;2024-01-07T08:32:42;6.97;;;4.55;;
20012;SDS011;10167;42.852;23.042;2024-01-07T08:35:11;5.82;;;3.53;;
20012;SDS011;10167;42.852;23.042;2024-01-07T08:37:44;10.93;;;7.72;;
20012;SDS011;10167;42.852;23.042;2024-01-07T08:40:13;8.60;;;3.30;;
20012;SDS011;10167;42.852;23.042;2024-01-07T08:42:45;8.77;;;4.40;;
20012;SDS011;10167;42.852;23.042;2024-01-07T08:45:16;3.50;;;2.40;;
20012;SDS011;10167;42.852;23.042;2024-01-07T08:47:46;3.22;;;2.67;;
20012;SDS011;10167;42.852;23.042;2024-01-07T08:50:16;5.57;;;2.92;;
20012;SDS011;10167;42.852;23.042;2024-01-07T08:52:45;11.65;;;3.13;;
20012;SDS011;10167;42.852;23.042;2024-01-07T08:55:15;3.92;;;2.15;;
20012;SDS011;10167;42.852;23.042;2024-01-07T08:57:46;2.65;;;2.10;;
20012;SDS011;10167;42.852;23.042;2024-01-07T09:00:18;10.43;;;3.83;;
20012;SDS011;10167;42.852;23.042;2024-01-07T09:02:48;8.68;;;4.03;;
20012;SDS011;10167;42.852;23.042;2024-01-07T09:05:18;4.63;;;3.72;;
20012;SDS011;10167;42.852;23.042;2024-01-07T09:07:47;5.10;;;3.17;;
20012;SDS011;10167;42.852;23.042;2024-01-07T09:10:17;2.72;;;2.53;;
20012;SDS011;10167;42.852;23.042;2024-01-07T09:12:48;3.35;;;2.55;;
20012;SDS011;10167;42.852;23.042;2024-01-07T09:15:19;9.57;;;3.33;;
20012;SDS011;10167;42.852;23.042;2024-01-07T09:17:48;3.20;;;3.00;;
20012;SDS011;10167;42.852;23.042;2024-01-07T09:20:18;2.53;;;2.33;;
20012;SDS011;10167;42.852;23.042;2024-01-07T09:22:47;3.53;;;2.70;;
20012;SDS011;10167;42.852;23.042;2024-01-07T09:25:17;2.35;;;1.08;;
20012;SDS011;10167;42.852;23.042;2024-01-07T09:27:46;3.40;;;1.40;;
20012;SDS011;10167;42.852;23.042;2024-01-07T09:30:15;3.03;;;0.80;;
20012;SDS011;10167;42.852;23.042;2024-01-07T09:32:46;1.30;;;1.20;;
20012;SDS011;10167;42.852;23.042;2024-01-07T09:35:16;0.85;;;0.85;;
20012;SDS011;10167;42.852;23.042;2024-01-07T09:37:45;0.73;;;0.68;;
20012;SDS011;10167;42.852;23.042;2024-01-07T09:40:16;1.65;;;1.00;;
20012;SDS011;10167;42.852;23.042;2024-01-07T09:42:47;0.75;;;0.65;;
20012;SDS011;10167;42.852;23.042;2024-01-07T09:45:16;3.70;;;1.30;;
20012;SDS011;10167;42.852;23.042;2024-01-07T09:47:51;15.85;;;1.95;;
20012;SDS011;10167;42.852;23.042;2024-01-07T09:50:20;2.22;;;1.42;;
20012;SDS011;10167;42.852;23.042;2024-01-07T09:52:49;0.98;;;0.98;;
20012;SDS011;10167;42.852;23.042;2024-01-07T09:55:22;14.27;;;0.82;;
20012;SDS011;10167;42.852;23.042;2024-01-07T09:57:57;6.65;;;1.85;;
20012;SDS011;10167;42.852;23.042;2024-01-07T10:00:26;1.77;;;1.65;;
20012;SDS011;10167;42.852;23.042;2024-01-07T10:03:01;1.08;;;0.93;;
20012;SDS011;10167;42.852;23.042;2024-01-07T10:05:30;0.98;;;0.93;;
20012;SDS011;10167;42.852;23.042;2024-01-07T10:07:59;1.10;;;1.00;;
20012;SDS011;10167;42.852;23.042;2024-01-07T10:10:29;3.35;;;0.80;;
20012;SDS011;10167;42.852;23.042;2024-01-07T10:12:59;10.10;;;2.53;;
20012;SDS011;10167;42.852;23.042;2024-01-07T10:15:28;0.32;;;0.32;;
20012;SDS011;10167;42.852;23.042;2024-01-07T10:18:03;0.30;;;0.30;;
20012;SDS011;10167;42.852;23.042;2024-01-07T10:20:34;1.50;;;1.25;;
20012;SDS011;10167;42.852;23.042;2024-01-07T10:23:09;0.40;;;0.40;;
20012;SDS011;10167;42.852;23.042;2024-01-07T10:25:38;0.30;;;0.30;;
20012;SDS011;10167;42.852;23.042;2024-01-07T10:28:08;1.95;;;1.20;;
20012;SDS011;10167;42.852;23.042;2024-01-07T10:30:38;1.98;;;1.58;;
20012;SDS011;10167;42.852;23.042;2024-01-07T10:33:09;3.55;;;1.83;;
20012;SDS011;10167;42.852;23.042;2024-01-07T10:35:39;1.65;;;1.55;;
20012;SDS011;10167;42.852;23.042;2024-01-07T10:38:11;2.03;;;1.75;;
20012;SDS011;10167;42.852;23.042;2024-01-07T10:40:40;0.55;;;0.55;;
20012;SDS011;10167;42.852;23.042;2024-01-07T10:43:12;0.45;;;0.43;;
20012;SDS011;10167;42.852;23.042;2024-01-07T10:45:44;0.63;;;0.63;;
20012;SDS011;10167;42.852;23.042;2024-01-07T10:48:18;0.85;;;0.57;;
20012;SDS011;10167;42.852;23.042;2024-01-07T10:50:49;4.22;;;2.13;;
20012;SDS011;10167;42.852;23.042;2024-01-07T10:53:23;0.50;;;0.50;;
20012;SDS011;10167;42.852;23.042;2024-01-07T10:55:58;0.25;;;0.20;;
20012;SDS011;10167;42.852;23.042;2024-01-07T10:58:32;0.38;;;0.38;;
20012;SDS011;10167;42.852;23.042;2024-01-07T11:01:02;2.08;;;0.90;;
20012;SDS011;10167;42.852;23.042;2024-01-07T11:03:38;0.95;;;0.35;;
20012;SDS011;10167;42.852;23.042;2024-01-07T11:06:16;0.20;;;0.20;;
20012;SDS011;10167;42.852;23.042;2024-01-07T11:08:55;0.25;;;0.25;;
20012;SDS011;10167;42.852;23.042;2024-01-07T11:11:31;0.10;;;0.10;;
20012;SDS011;10167;42.852;23.042;2024-01-07T11:14:04;1.65;;;0.77;;
20012;SDS011;10167;42.852;23.042;2024-01-07T11:16:42;0.22;;;0.22;;
20012;SDS011;10167;42.852;23.042;2024-01-07T11:19:15;0.75;;;0.47;;
20012;SDS011;10167;42.852;23.042;2024-01-07T11:21:44;2.47;;;0.40;;
20012;SDS011;10167;42.852;23.042;2024-01-07T11:27:08;2.10;;;0.40;;
20012;SDS011;10167;42.852;23.042;2024-01-07T11:29:38;0.30;;;0.30;;
20012;SDS011;10167;42.852;23.042;2024-01-07T11:32:07;0.45;;;0.45;;
20012;SDS011;10167;42.852;23.042;2024-01-07T11:34:42;0.10;;;0.10;;
20012;SDS011;10167;42.852;23.042;2024-01-07T11:37:17;1.20;;;0.13;;
20012;SDS011;10167;42.852;23.042;2024-01-07T11:39:47;0.50;;;0.50;;
20012;SDS011;10167;42.852;23.042;2024-01-07T11:42:18;0.35;;;0.35;;
20012;SDS011;10167;42.852;23.042;2024-01-07T11:44:47;0.50;;;0.30;;
20012;SDS011;10167;42.852;23.042;2024-01-07T11:47:17;0.32;;;0.32;;
20012;SDS011;10167;42.852;23.042;2024-01-07T11:49:49;6.15;;;2.88;;
20012;SDS011;10167;42.852;23.042;2024-01-07T11:52:19;2.75;;;0.60;;
20012;SDS011;10167;42.852;23.042;2024-01-07T11:54:49;2.58;;;0.40;;
20012;SDS011;10167;42.852;23.042;2024-01-07T11:57:19;0.03;;;0.03;;
20012;SDS011;10167;42.852;23.042;2024-01-07T11:59:48;0.52;;;0.30;;
20012;SDS011;10167;42.852;23.042;2024-01-07T12:02:18;0.15;;;0.15;;
20012;SDS011;10167;42.852;23.042;2024-01-07T12:04:49;0.17;;;0.17;;
20012;SDS011;10167;42.852;23.042;2024-01-07T12:07:19;0.20;;;0.20;;
20012;SDS011;10167;42.852;23.042;2024-01-07T12:09:55;1.00;;;0.68;;
20012;SDS011;10167;42.852;23.042;2024-01-07T12:12:25;2.33;;;0.98;;
20012;SDS011;10167;42.852;23.042;2024-01-07T12:14:56;0.52;;;0.52;;
20012;SDS011;10167;42.852;23.042;2024-01-07T12:17:26;0.80;;;0.52;;
20012;SDS011;10167;42.852;23.042;2024-01-07T12:19:57;0.10;;;0.10;;
20012;SDS011;10167;42.852;23.042;2024-01-07T12:22:29;0.05;;;0.05;;
20012;SDS011;10167;42.852;23.042;2024-01-07T12:25:01;3.03;;;0.85;;
20012;SDS011;10167;42.852;23.042;2024-01-07T12:27:31;0.10;;;0.10;;
20012;SDS011;10167;42.852;23.042;2024-01-07T12:30:01;7.25;;;0.50;;
20012;SDS011;10167;42.852;23.042;2024-01-07T12:32:31;0.10;;;0.10;;
20012;SDS011;10167;42.852;23.042;2024-01-07T12:35:02;0.15;;;0.15;;
20012;SDS011;10167;42.852;23.042;2024-01-07T12:37:32;0.28;;;0.28;;
20012;SDS011;10167;42.852;23.042;2024-01-07T12:40:04;0.60;;;0.47;;
20012;SDS011;10167;42.852;23.042;2024-01-07T12:42:36;0.30;;;0.30;;
20012;SDS011;10167;42.852;23.042;2024-01-07T12:45:08;0.25;;;0.20;;
20012;SDS011;10167;42.852;23.042;2024-01-07T12:47:41;0.73;;;0.40;;
20012;SDS011;10167;42.852;23.042;2024-01-07T12:50:12;1.65;;;0.40;;
20012;SDS011;10167;42.852;23.042;2024-01-07T12:52:43;0.70;;;0.70;;
20012;SDS011;10167;42.852;23.042;2024-01-07T12:55:12;0.20;;;0.20;;
20012;SDS011;10167;42.852;23.042;2024-01-07T12:57:42;3.25;;;0.73;;
20012;SDS011;10167;42.852;23.042;2024-01-07T13:00:12;4.43;;;0.35;;
20012;SDS011;10167;42.852;23.042;2024-01-07T13:02:42;0.40;;;0.30;;
20012;SDS011;10167;42.852;23.042;2024-01-07T13:05:13;0.10;;;0.10;;
20012;SDS011;10167;42.852;23.042;2024-01-07T13:07:46;0.10;;;0.10;;
20012;SDS011;10167;42.852;23.042;2024-01-07T13:10:15;0.30;;;0.30;;
20012;SDS011;10167;42.852;23.042;2024-01-07T13:12:45;0.28;;;0.28;;
20012;SDS011;10167;42.852;23.042;2024-01-07T13:15:19;0.22;;;0.22;;
20012;SDS011;10167;42.852;23.042;2024-01-07T13:17:52;4.72;;;1.88;;
20012;SDS011;10167;42.852;23.042;2024-01-07T13:20:23;0.47;;;0.47;;
20012;SDS011;10167;42.852;23.042;2024-01-07T13:22:52;0.68;;;0.40;;
20012;SDS011;10167;42.852;23.042;2024-01-07T13:25:22;1.02;;;0.70;;
20012;SDS011;10167;42.852;23.042;2024-01-07T13:27:51;1.23;;;1.10;;
20012;SDS011;10167;42.852;23.042;2024-01-07T13:30:21;0.52;;;0.30;;
20012;SDS011;10167;42.852;23.042;2024-01-07T13:32:50;2.53;;;0.65;;
20012;SDS011;10167;42.852;23.042;2024-01-07T13:35:26;0.75;;;0.75;;
20012;SDS011;10167;42.852;23.042;2024-01-07T13:37:56;0.98;;;0.90;;
20012;SDS011;10167;42.852;23.042;2024-01-07T13:40:25;3.05;;;1.27;;
20012;SDS011;10167;42.852;23.042;2024-01-07T13:42:54;2.47;;;0.90;;
20012;SDS011;10167;42.852;23.042;2024-01-07T13:45:23;0.95;;;0.85;;
20012;SDS011;10167;42.852;23.042;2024-01-07T13:47:53;2.75;;;1.30;;
20012;SDS011;10167;42.852;23.042;2024-01-07T13:50:24;1.35;;;0.95;;
20012;SDS011;10167;42.852;23.042;2024-01-07T13:52:55;2.42;;;1.35;;
20012;SDS011;10167;42.852;23.042;2024-01-07T13:55:24;3.75;;;2.13;;
20012;SDS011;10167;42.852;23.042;2024-01-07T13:57:57;1.88;;;1.70;;
20012;SDS011;10167;42.852;23.042;2024-01-07T14:00:26;2.40;;;1.42;;
20012;SDS011;10167;42.852;23.042;2024-01-07T14:02:56;0.70;;;0.60;;
20012;SDS011;10167;42.852;23.042;2024-01-07T14:05:26;0.75;;;0.75;;
20012;SDS011;10167;42.852;23.042;2024-01-07T14:07:56;3.50;;;2.63;;
20012;SDS011;10167;42.852;23.042;2024-01-07T14:10:29;4.22;;;1.65;;
20012;SDS011;10167;42.852;23.042;2024-01-07T14:12:58;8.85;;;4.18;;
20012;SDS011;10167;42.852;23.042;2024-01-07T14:15:28;2.67;;;2.28;;
20012;SDS011;10167;42.852;23.042;2024-01-07T14:17:58;1.77;;;1.15;;
20012;SDS011;10167;42.852;23.042;2024-01-07T14:20:27;1.30;;;1.20;;
20012;SDS011;10167;42.852;23.042;2024-01-07T14:22:58;3.08;;;1.63;;
20012;SDS011;10167;42.852;23.042;2024-01-07T14:25:27;6.30;;;4.13;;
20012;SDS011;10167;42.852;23.042;2024-01-07T14:27:57;4.07;;;2.60;;
20012;SDS011;10167;42.852;23.042;2024-01-07T14:30:26;3.92;;;3.28;;
20012;SDS011;10167;42.852;23.042;2024-01-07T14:32:56;4.45;;;1.95;;
20012;SDS011;10167;42.852;23.042;2024-01-07T14:35:26;4.15;;;1.42;;
20012;SDS011;10167;42.852;23.042;2024-01-07T14:37:59;7.15;;;2.35;;
20012;SDS011;10167;42.852;23.042;2024-01-07T14:40:32;5.20;;;3.05;;
20012;SDS011;10167;42.852;23.042;2024-01-07T14:43:01;7.10;;;3.75;;
20012;SDS011;10167;42.852;23.042;2024-01-07T14:45:31;2.47;;;2.28;;
20012;SDS011;10167;42.852;23.042;2024-01-07T14:48:01;3.30;;;2.45;;
20012;SDS011;10167;42.852;23.042;2024-01-07T14:50:31;2.60;;;1.90;;
20012;SDS011;10167;42.852;23.042;2024-01-07T14:53:09;7.20;;;1.20;;